Time;durP1;ratioP1;P1;durP2;ratioP2;P2;SDS_P1;SDS_P2;PMS_P1;PMS_P2;Temp;Humidity;BMP_temperature;BMP_pressure;BME280_temperature;BME280_humidity;BME280_pressure;Samples;Min_cycle;Max_cycle;Signal;HPM_P1;HPM_P2
2023/12/08 00:00:10;;;;;;;21.27;12.10;;;;;;;3.62;100.00;99463.81;5112531;28;20073;-71
2023/12/08 00:02:35;;;;;;;13.45;8.73;;;;;;;3.60;100.00;99460.50;5085409;28;20492;-71
2023/12/08 00:05:01;;;;;;;12.50;8.27;;;;;;;3.55;100.00;99457.78;5091098;28;20050;-70
2023/12/08 00:07:26;;;;;;;10.18;8.68;;;;;;;3.53;100.00;99454.50;5094314;28;20030;-70
2023/12/08 00:09:52;;;;;;;10.90;7.55;;;;;;;3.50;100.00;99448.44;5111453;28;20073;-71
2023/12/08 00:12:17;;;;;;;11.45;8.07;;;;;;;3.49;100.00;99457.00;5092840;28;20084;-71
2023/12/08 00:14:43;;;;;;;9.35;7.28;;;;;;;3.53;100.00;99460.03;5112391;28;20031;-71
2023/12/08 00:17:08;;;;;;;9.68;7.13;;;;;;;3.55;100.00;99466.91;5105715;28;20081;-70
2023/12/08 00:19:34;;;;;;;14.50;8.70;;;;;;;3.62;100.00;99466.56;5073610;28;20024;-71
2023/12/08 00:21:59;;;;;;;10.43;7.55;;;;;;;3.55;100.00;99477.16;5075837;28;20442;-70
2023/12/08 00:24:25;;;;;;;12.18;8.85;;;;;;;3.56;100.00;99482.41;5111488;28;20023;-71
2023/12/08 00:26:50;;;;;;;13.68;8.75;;;;;;;3.61;100.00;99478.75;5111327;28;20040;-71
2023/12/08 00:29:19;;;;;;;12.23;8.27;;;;;;;3.60;100.00;99485.41;5111969;28;20016;-71
2023/12/08 00:31:45;;;;;;;10.93;7.93;;;;;;;3.65;100.00;99475.13;5099943;28;20032;-71
2023/12/08 00:34:10;;;;;;;10.68;7.45;;;;;;;3.60;100.00;99461.34;5093096;28;20087;-70
2023/12/08 00:36:36;;;;;;;11.10;7.47;;;;;;;3.60;100.00;99464.13;5093684;28;20030;-71
2023/12/08 00:39:02;;;;;;;9.52;7.63;;;;;;;3.55;100.00;99468.84;5093513;28;20024;-71
2023/12/08 00:41:27;;;;;;;11.25;7.40;;;;;;;3.68;100.00;99470.97;5111061;28;20069;-71
2023/12/08 00:43:53;;;;;;;12.57;7.18;;;;;;;3.59;100.00;99478.22;5109922;28;20023;-71
2023/12/08 00:46:19;;;;;;;11.48;7.15;;;;;;;3.60;100.00;99477.94;5111094;28;20027;-72
2023/12/08 00:48:44;;;;;;;8.65;6.35;;;;;;;3.55;100.00;99475.19;5111761;28;20027;-71
2023/12/08 00:51:12;;;;;;;8.38;6.38;;;;;;;3.54;100.00;99470.78;5111113;28;20098;-71
2023/12/08 00:53:38;;;;;;;8.25;6.70;;;;;;;3.59;100.00;99479.06;5110938;28;20020;-71
2023/12/08 00:56:04;;;;;;;8.25;6.75;;;;;;;3.54;100.00;99478.28;5092671;28;20130;-71
2023/12/08 00:58:30;;;;;;;7.53;5.90;;;;;;;3.56;100.00;99487.09;5092367;28;20119;-71
2023/12/08 01:00:55;;;;;;;9.45;5.90;;;;;;;3.56;100.00;99478.81;5092501;28;20020;-71
2023/12/08 01:03:20;;;;;;;9.70;6.25;;;;;;;3.51;100.00;99474.13;5109163;28;20129;-71
2023/12/08 01:05:46;;;;;;;9.20;6.70;;;;;;;3.56;100.00;99481.56;5111606;28;20024;-71
2023/12/08 01:08:11;;;;;;;9.90;6.43;;;;;;;3.51;100.00;99479.66;5111541;28;20023;-71
2023/12/08 01:10:37;;;;;;;9.57;6.47;;;;;;;3.56;100.00;99485.19;5110043;28;20108;-71
2023/12/08 01:13:02;;;;;;;8.73;7.20;;;;;;;3.56;100.00;99492.63;5111067;28;20019;-71
2023/12/08 01:15:28;;;;;;;9.23;6.47;;;;;;;3.53;100.00;99484.91;5085484;28;20028;-71
2023/12/08 01:17:53;;;;;;;10.10;6.30;;;;;;;3.49;100.00;99471.66;5091206;28;20024;-71
2023/12/08 01:20:19;;;;;;;17.95;6.38;;;;;;;3.49;100.00;99468.06;5088054;28;20562;-71
2023/12/08 01:22:44;;;;;;;9.65;6.80;;;;;;;3.46;100.00;99472.22;5075034;28;20616;-71
2023/12/08 01:25:10;;;;;;;9.90;6.93;;;;;;;3.52;100.00;99475.78;5078211;28;20023;-72
2023/12/08 01:27:35;;;;;;;9.57;6.55;;;;;;;3.48;100.00;99475.53;5093103;28;20015;-72
2023/12/08 01:30:01;;;;;;;9.90;7.28;;;;;;;3.55;100.00;99477.97;5092343;28;20030;-72
2023/12/08 01:32:26;;;;;;;9.30;7.15;;;;;;;3.51;100.00;99477.75;5090012;28;20027;-71
2023/12/08 01:34:51;;;;;;;10.60;7.35;;;;;;;3.53;100.00;99476.63;5111186;28;20028;-71
2023/12/08 01:37:17;;;;;;;11.70;8.10;;;;;;;3.55;100.00;99471.63;5092958;28;20510;-71
2023/12/08 01:39:42;;;;;;;11.35;7.90;;;;;;;3.53;100.00;99471.09;5090052;28;20609;-71
2023/12/08 01:42:08;;;;;;;10.73;7.22;;;;;;;3.44;100.00;99468.09;5088541;28;20052;-71
2023/12/08 01:44:34;;;;;;;12.48;8.75;;;;;;;3.45;100.00;99473.34;5090777;28;20038;-71
2023/12/08 01:46:59;;;;;;;12.77;8.93;;;;;;;3.45;100.00;99475.28;5089773;28;20028;-71
2023/12/08 01:49:25;;;;;;;11.80;8.10;;;;;;;3.42;100.00;99471.16;5087364;28;20068;-71
2023/12/08 01:51:51;;;;;;;32.75;9.57;;;;;;;3.37;100.00;99474.78;5090164;28;20093;-73
2023/12/08 01:54:16;;;;;;;11.85;8.75;;;;;;;3.42;100.00;99479.44;5089505;28;20028;-71
2023/12/08 01:56:42;;;;;;;13.85;9.27;;;;;;;3.42;100.00;99471.16;5083567;28;20036;-71
2023/12/08 01:59:09;;;;;;;14.35;9.80;;;;;;;3.40;100.00;99473.38;5088825;28;20500;-71
2023/12/08 02:01:34;;;;;;;13.93;10.07;;;;;;;3.49;100.00;99470.84;5083044;28;20455;-72
2023/12/08 02:04:01;;;;;;;13.95;10.00;;;;;;;3.43;100.00;99466.44;5070619;28;20025;-71
2023/12/08 02:06:27;;;;;;;14.77;9.93;;;;;;;3.37;100.00;99472.00;5089479;28;20074;-72
2023/12/08 02:08:53;;;;;;;14.00;9.35;;;;;;;3.36;100.00;99477.81;5089789;28;20069;-71
2023/12/08 02:11:19;;;;;;;14.98;10.75;;;;;;;3.39;100.00;99477.28;5084982;28;20023;-71
2023/12/08 02:13:45;;;;;;;11.63;8.43;;;;;;;3.41;100.00;99475.03;5072426;28;20024;-71
2023/12/08 02:16:17;;;;;;;13.80;9.43;;;;;;;3.37;100.00;99476.72;5072656;28;20021;-71
2023/12/08 02:18:44;;;;;;;15.25;9.70;;;;;;;3.41;100.00;99485.25;5081925;28;20108;-71
2023/12/08 02:21:10;;;;;;;14.00;9.40;;;;;;;3.36;100.00;99484.19;5076488;28;20084;-71
2023/12/08 02:23:36;;;;;;;15.02;9.40;;;;;;;3.40;100.00;99487.22;5092852;28;20028;-71
2023/12/08 02:26:05;;;;;;;14.07;9.90;;;;;;;3.39;100.00;99488.34;5093632;28;20027;-71
2023/12/08 02:28:31;;;;;;;13.07;9.63;;;;;;;3.34;100.00;99480.06;5092910;28;20043;-71
2023/12/08 02:31:00;;;;;;;12.35;9.20;;;;;;;3.42;100.00;99481.38;5092259;28;20020;-71
2023/12/08 02:33:31;;;;;;;16.77;10.40;;;;;;;3.28;100.00;99475.69;5073676;28;20073;-71
2023/12/08 02:36:01;;;;;;;16.83;10.68;;;;;;;3.32;100.00;99493.34;5081352;28;20442;-71
2023/12/08 02:38:28;;;;;;;16.70;10.95;;;;;;;3.36;100.00;99483.34;5092259;28;20016;-71
2023/12/08 02:40:55;;;;;;;18.50;11.18;;;;;;;3.34;100.00;99488.34;5092073;28;20420;-71
2023/12/08 02:43:23;;;;;;;23.60;11.57;;;;;;;3.36;100.00;99491.66;5107902;28;20052;-71
2023/12/08 02:45:48;;;;;;;21.27;12.00;;;;;;;3.38;100.00;99492.22;5094520;28;20392;-72
2023/12/08 02:48:13;;;;;;;17.58;11.07;;;;;;;3.34;100.00;99482.81;5113826;28;20111;-72
2023/12/08 02:50:40;;;;;;;18.42;11.57;;;;;;;3.43;100.00;99494.09;5113894;28;20023;-71
2023/12/08 02:53:06;;;;;;;18.63;11.65;;;;;;;3.42;100.00;99500.72;5112226;28;20067;-71
2023/12/08 02:55:31;;;;;;;18.58;11.52;;;;;;;3.37;100.00;99501.59;5112866;28;20588;-71
2023/12/08 02:57:57;;;;;;;19.88;11.02;;;;;;;3.33;100.00;99490.31;5095398;28;20021;-71
2023/12/08 03:00:22;;;;;;;19.60;12.55;;;;;;;3.43;100.00;99489.41;5113976;28;20031;-71
2023/12/08 03:02:47;;;;;;;16.88;11.45;;;;;;;3.35;100.00;99492.75;5112504;28;20023;-71
2023/12/08 03:05:13;;;;;;;20.02;12.38;;;;;;;3.40;100.00;99492.75;5111693;28;20019;-71
2023/12/08 03:07:38;;;;;;;20.90;12.35;;;;;;;3.44;100.00;99487.44;5075097;28;20026;-71
2023/12/08 03:10:05;;;;;;;19.55;12.10;;;;;;;3.44;100.00;99495.75;5110672;28;20114;-71
2023/12/08 03:12:30;;;;;;;22.23;12.77;;;;;;;3.38;100.00;99492.22;5099994;28;20020;-71
2023/12/08 03:14:56;;;;;;;23.20;12.00;;;;;;;3.40;100.00;99489.97;5094682;28;20431;-71
2023/12/08 03:17:21;;;;;;;16.17;10.60;;;;;;;3.48;100.00;99494.06;5108568;28;20031;-71
2023/12/08 03:19:47;;;;;;;19.35;12.43;;;;;;;3.37;100.00;99490.53;5113236;28;20034;-71
2023/12/08 03:22:12;;;;;;;17.77;11.93;;;;;;;3.45;100.00;99498.22;5083897;28;20165;-71
2023/12/08 03:24:38;;;;;;;20.25;12.82;;;;;;;3.42;100.00;99484.97;5101568;28;20023;-71
2023/12/08 03:27:03;;;;;;;19.80;11.82;;;;;;;3.37;100.00;99496.91;5111282;28;20411;-71
2023/12/08 03:29:29;;;;;;;19.23;12.27;;;;;;;3.40;100.00;99495.50;5113208;28;20019;-72
2023/12/08 03:31:54;;;;;;;25.00;13.55;;;;;;;3.37;100.00;99491.38;5105111;28;20103;-71
2023/12/08 03:34:20;;;;;;;21.42;13.82;;;;;;;3.32;100.00;99496.94;5107171;28;20110;-71
2023/12/08 03:36:45;;;;;;;24.48;14.48;;;;;;;3.37;100.00;99502.44;5090303;28;20569;-71
2023/12/08 03:39:11;;;;;;;28.52;16.60;;;;;;;3.32;100.00;99494.19;5074610;28;20454;-72
2023/12/08 03:41:36;;;;;;;21.73;14.18;;;;;;;3.46;100.00;99488.81;5097054;28;20048;-72
2023/12/08 03:44:02;;;;;;;28.98;15.85;;;;;;;3.32;100.00;99485.88;5093911;28;20036;-71
2023/12/08 03:46:27;;;;;;;30.60;16.85;;;;;;;3.35;100.00;99481.69;5104990;28;20024;-71
2023/12/08 03:48:53;;;;;;;27.45;15.63;;;;;;;3.34;100.00;99489.19;5092882;28;20024;-72
2023/12/08 03:51:18;;;;;;;21.45;13.05;;;;;;;3.34;100.00;99486.41;5074323;28;20024;-71
2023/12/08 03:53:43;;;;;;;28.33;15.93;;;;;;;3.30;100.00;99473.44;5101063;28;20027;-71
2023/12/08 03:56:09;;;;;;;26.08;16.30;;;;;;;3.33;100.00;99481.16;5112721;28;20028;-71
2023/12/08 03:58:34;;;;;;;26.83;15.27;;;;;;;3.29;100.00;99477.34;5112525;28;20023;-71
2023/12/08 04:01:00;;;;;;;22.60;14.82;;;;;;;3.30;100.00;99473.44;5111105;28;20034;-72
2023/12/08 04:03:25;;;;;;;25.52;13.70;;;;;;;3.28;100.00;99470.97;5080134;28;20481;-71
2023/12/08 04:05:52;;;;;;;18.45;12.55;;;;;;;3.29;100.00;99482.88;5112576;28;20024;-71
2023/12/08 04:08:17;;;;;;;24.17;14.75;;;;;;;3.26;100.00;99488.94;5107406;28;20446;-71
2023/12/08 04:10:43;;;;;;;25.85;15.48;;;;;;;3.28;100.00;99493.09;5092092;28;20028;-72
2023/12/08 04:13:08;;;;;;;26.85;16.13;;;;;;;3.31;100.00;99486.97;5074218;28;20024;-72
2023/12/08 04:15:34;;;;;;;26.02;15.68;;;;;;;3.31;100.00;99491.69;5084672;28;20028;-71
2023/12/08 04:17:59;;;;;;;26.08;16.23;;;;;;;3.25;100.00;99481.75;5112156;28;20035;-71
2023/12/08 04:20:25;;;;;;;24.35;16.15;;;;;;;3.29;100.00;99480.09;5112422;28;20034;-72
2023/12/08 04:22:50;;;;;;;24.75;15.23;;;;;;;3.20;100.00;99480.69;5097254;28;20031;-71
2023/12/08 04:25:16;;;;;;;25.92;15.13;;;;;;;3.28;100.00;99475.69;5094723;28;20031;-71
2023/12/08 04:27:41;;;;;;;24.63;15.00;;;;;;;3.28;100.00;99479.25;5079714;28;20038;-71
2023/12/08 04:30:07;;;;;;;23.33;15.18;;;;;;;3.28;100.00;99490.31;5091634;28;20031;-71
2023/12/08 04:32:34;;;;;;;26.30;15.55;;;;;;;3.25;100.00;99490.06;5103079;28;20512;-71
2023/12/08 04:34:59;;;;;;;31.92;18.85;;;;;;;3.25;100.00;99484.53;5092736;28;20028;-72
2023/12/08 04:37:25;;;;;;;43.13;23.15;;;;;;;3.24;100.00;99486.47;5093280;28;20076;-71
2023/12/08 04:39:50;;;;;;;40.47;21.63;;;;;;;3.26;100.00;99477.88;5111783;28;20024;-72
2023/12/08 04:42:16;;;;;;;38.78;19.40;;;;;;;3.17;100.00;99483.19;5101125;28;20043;-71
2023/12/08 04:44:42;;;;;;;39.15;18.75;;;;;;;3.22;100.00;99495.03;5091126;28;20039;-71
2023/12/08 04:47:09;;;;;;;48.28;23.48;;;;;;;3.29;100.00;99488.38;5110955;28;20032;-71
2023/12/08 04:49:34;;;;;;;38.92;22.95;;;;;;;3.32;100.00;99496.09;5111822;28;20429;-72
2023/12/08 04:52:00;;;;;;;35.13;19.92;;;;;;;3.30;100.00;99482.56;5104659;28;20035;-71
2023/12/08 04:54:25;;;;;;;29.83;17.88;;;;;;;3.34;100.00;99485.59;5091211;28;20058;-71
2023/12/08 04:56:51;;;;;;;29.52;18.80;;;;;;;3.29;100.00;99491.97;5108739;28;20084;-71
2023/12/08 04:59:16;;;;;;;32.72;17.17;;;;;;;3.32;100.00;99494.19;5092486;28;20101;-71
2023/12/08 05:01:42;;;;;;;28.48;17.73;;;;;;;3.34;100.00;99486.41;5110935;28;20034;-71
2023/12/08 05:04:07;;;;;;;30.20;18.75;;;;;;;3.42;100.00;99497.97;5110874;28;20024;-71
2023/12/08 05:06:32;;;;;;;31.23;19.83;;;;;;;3.42;100.00;99484.16;5111522;28;20048;-72
2023/12/08 05:08:58;;;;;;;39.60;22.73;;;;;;;3.48;100.00;99494.88;5092571;28;20027;-75
2023/12/08 05:11:23;;;;;;;39.78;22.27;;;;;;;3.56;100.00;99498.16;5091589;28;20031;-73
2023/12/08 05:13:49;;;;;;;42.50;23.80;;;;;;;3.48;100.00;99500.41;5102364;28;20562;-74
2023/12/08 05:16:15;;;;;;;44.95;25.52;;;;;;;3.50;100.00;99503.75;5094917;28;20432;-74
2023/12/08 05:18:41;;;;;;;43.40;23.38;;;;;;;3.54;100.00;99503.97;5073046;28;20031;-73
2023/12/08 05:21:07;;;;;;;40.13;21.02;;;;;;;3.53;100.00;99504.28;5074577;28;20031;-73
2023/12/08 05:23:33;;;;;;;31.35;18.13;;;;;;;3.46;100.00;99508.19;5110366;28;20024;-71
2023/12/08 05:25:58;;;;;;;31.15;19.92;;;;;;;3.47;100.00;99501.53;5093254;28;20019;-73
2023/12/08 05:28:24;;;;;;;30.70;18.88;;;;;;;3.47;100.00;99509.00;5107748;28;20023;-73
2023/12/08 05:30:50;;;;;;;44.10;25.50;;;;;;;3.52;100.00;99508.97;5086441;28;20023;-74
2023/12/08 05:33:15;;;;;;;41.80;25.52;;;;;;;3.43;100.00;99511.53;5102090;28;20039;-73
2023/12/08 05:35:41;;;;;;;44.22;25.63;;;;;;;3.50;100.00;99519.50;5106703;28;20257;-73
2023/12/08 05:38:06;;;;;;;37.03;21.63;;;;;;;3.50;100.00;99522.25;5105734;28;20038;-71
2023/12/08 05:40:31;;;;;;;29.67;17.85;;;;;;;3.38;100.00;99525.41;5095678;28;20073;-72
2023/12/08 05:42:57;;;;;;;33.70;18.65;;;;;;;3.33;100.00;99528.16;5090655;28;20046;-73
2023/12/08 05:45:22;;;;;;;36.20;21.60;;;;;;;3.38;100.00;99525.41;5111029;28;20027;-72
2023/12/08 05:47:48;;;;;;;39.50;19.90;;;;;;;3.34;100.00;99532.59;5111457;28;20027;-72
2023/12/08 05:50:14;;;;;;;38.30;21.77;;;;;;;3.33;100.00;99528.16;5112019;28;20024;-73
2023/12/08 05:52:39;;;;;;;39.13;22.85;;;;;;;3.32;100.00;99532.06;5111438;28;20049;-76
2023/12/08 05:55:05;;;;;;;35.67;19.75;;;;;;;3.31;100.00;99535.94;5086215;28;20395;-73
2023/12/08 05:57:30;;;;;;;32.97;20.33;;;;;;;3.39;100.00;99537.25;5120790;28;20019;-76
2023/12/08 05:59:56;;;;;;;33.00;21.58;;;;;;;3.38;100.00;99541.97;5126013;28;20023;-75
2023/12/08 06:02:21;;;;;;;28.95;18.05;;;;;;;3.36;100.00;99538.66;5108368;28;20031;-76
2023/12/08 06:04:47;;;;;;;30.65;18.42;;;;;;;3.36;100.00;99542.25;5108094;28;20079;-75
2023/12/08 06:07:12;;;;;;;31.92;17.80;;;;;;;3.43;100.00;99546.63;5109305;28;20031;-75
2023/12/08 06:09:38;;;;;;;30.52;18.65;;;;;;;3.36;100.00;99549.72;5083033;28;20012;-73
2023/12/08 06:12:04;;;;;;;37.63;21.33;;;;;;;3.25;100.00;99537.91;5099705;28;20042;-79
2023/12/08 06:14:29;;;;;;;35.13;19.83;;;;;;;3.28;100.00;99539.28;5072942;28;20462;-75
2023/12/08 06:16:54;;;;;;;30.55;17.98;;;;;;;3.24;100.00;99541.78;5089160;28;20023;-74
2023/12/08 06:19:20;;;;;;;33.20;19.33;;;;;;;3.36;100.00;99555.25;5091422;28;20073;-74
2023/12/08 06:21:45;;;;;;;34.70;20.60;;;;;;;3.42;100.00;99559.66;5110978;28;20081;-74
2023/12/08 06:24:11;;;;;;;39.10;21.55;;;;;;;3.47;100.00;99556.03;5108476;28;20034;-74
2023/12/08 06:26:38;;;;;;;37.67;22.27;;;;;;;3.28;100.00;99550.34;5108909;28;20488;-74
2023/12/08 06:29:03;;;;;;;37.45;22.50;;;;;;;3.36;100.00;99566.31;5109535;28;20536;-74
2023/12/08 06:31:29;;;;;;;37.75;21.63;;;;;;;3.34;100.00;99557.47;5111755;28;20057;-75
2023/12/08 06:33:54;;;;;;;42.75;24.80;;;;;;;3.44;100.00;99562.13;5092832;28;20027;-72
2023/12/08 06:36:20;;;;;;;54.38;26.23;;;;;;;3.46;100.00;99560.72;5092219;28;20026;-75
2023/12/08 06:38:45;;;;;;;43.30;22.58;;;;;;;3.62;100.00;99572.53;5096955;28;20562;-79
2023/12/08 06:41:11;;;;;;;42.30;21.80;;;;;;;3.64;100.00;99578.59;5095209;28;20058;-78
2023/12/08 06:43:37;;;;;;;68.07;30.30;;;;;;;3.64;100.00;99583.31;5092108;28;20034;-76
2023/12/08 06:46:03;;;;;;;50.95;25.23;;;;;;;3.68;100.00;99584.38;5092169;28;20019;-75
2023/12/08 06:48:28;;;;;;;36.72;20.75;;;;;;;3.69;100.00;99580.50;5083498;28;20023;-76
2023/12/08 06:50:54;;;;;;;35.00;18.98;;;;;;;3.62;100.00;99574.44;5092650;28;20069;-74
2023/12/08 06:53:19;;;;;;;40.13;20.15;;;;;;;3.73;100.00;99591.84;5106254;28;20066;-75
2023/12/08 06:55:45;;;;;;;39.95;20.35;;;;;;;3.77;99.99;99590.13;5108557;28;20050;-70
2023/12/08 06:58:10;;;;;;;42.08;23.33;;;;;;;3.71;100.00;99597.63;5084138;28;20028;-74
2023/12/08 07:00:36;;;;;;;49.28;24.90;;;;;;;3.66;100.00;99586.63;5092701;28;20559;-74
2023/12/08 07:03:01;;;;;;;47.65;24.13;;;;;;;3.65;100.00;99588.53;5094541;28;20032;-73
2023/12/08 07:05:27;;;;;;;57.40;22.42;;;;;;;3.60;100.00;99580.28;5106133;28;20023;-75
2023/12/08 07:07:52;;;;;;;42.30;22.05;;;;;;;3.54;100.00;99586.13;5087945;28;20039;-73
2023/12/08 07:10:18;;;;;;;30.30;18.60;;;;;;;3.50;100.00;99591.41;5106378;28;20035;-76
2023/12/08 07:12:43;;;;;;;35.70;20.65;;;;;;;3.53;100.00;99601.91;5104227;28;20519;-75
2023/12/08 07:15:10;;;;;;;31.40;18.40;;;;;;;3.59;100.00;99591.63;5106937;28;20035;-77
2023/12/08 07:17:36;;;;;;;33.00;20.00;;;;;;;3.64;100.00;99588.84;5092437;28;20443;-79
2023/12/08 07:20:01;;;;;;;36.70;19.38;;;;;;;3.61;100.00;99594.94;5100715;28;20109;-76
2023/12/08 07:22:27;;;;;;;38.30;20.10;;;;;;;3.55;100.00;99598.84;5094910;28;20480;-73
2023/12/08 07:24:52;;;;;;;37.45;19.48;;;;;;;3.49;100.00;99587.81;5082602;28;20510;-75
2023/12/08 07:27:18;;;;;;;43.45;22.17;;;;;;;3.55;100.00;99590.56;5106974;28;20038;-76
2023/12/08 07:29:43;;;;;;;40.92;20.00;;;;;;;3.61;100.00;99593.00;5086862;28;20039;-74
2023/12/08 07:32:10;;;;;;;38.17;20.30;;;;;;;3.51;100.00;99593.91;5101608;28;20034;-75
2023/12/08 07:34:36;;;;;;;34.20;19.88;;;;;;;3.58;100.00;99603.81;5106266;28;20024;-75
2023/12/08 07:37:01;;;;;;;45.83;23.60;;;;;;;3.56;100.00;99604.13;5077193;28;20024;-75
2023/12/08 07:39:27;;;;;;;48.95;24.02;;;;;;;3.59;100.00;99592.47;5071890;28;20480;-76
2023/12/08 07:41:53;;;;;;;40.13;20.98;;;;;;;3.69;100.00;99599.88;5077458;28;20050;-76
2023/12/08 07:44:18;;;;;;;45.10;24.38;;;;;;;3.62;100.00;99600.19;5082726;28;20019;-76
2023/12/08 07:46:44;;;;;;;46.88;22.67;;;;;;;3.68;100.00;99595.47;5083960;28;20024;-75
2023/12/08 07:49:09;;;;;;;51.67;23.50;;;;;;;3.73;100.00;99592.66;5082798;28;20020;-74
2023/12/08 07:51:35;;;;;;;47.80;25.70;;;;;;;3.75;100.00;99589.59;5096620;28;20056;-77
2023/12/08 07:54:00;;;;;;;42.65;22.98;;;;;;;3.84;100.00;99598.97;5083315;28;20028;-76
2023/12/08 07:56:26;;;;;;;54.42;26.17;;;;;;;3.88;100.00;99599.22;5099803;28;20027;-75
2023/12/08 07:58:51;;;;;;;49.35;26.80;;;;;;;3.89;100.00;99603.63;5072153;28;20043;-76
2023/12/08 08:01:16;;;;;;;34.45;20.00;;;;;;;3.81;97.04;99599.53;5103426;28;20084;-76
2023/12/08 08:03:42;;;;;;;33.13;17.40;;;;;;;3.70;97.79;99604.28;5101150;28;20024;-75
2023/12/08 08:06:08;;;;;;;42.03;21.23;;;;;;;3.86;99.25;99607.78;5077171;28;20019;-75
2023/12/08 08:08:35;;;;;;;39.30;21.10;;;;;;;3.88;98.50;99604.75;5081106;28;20028;-76
2023/12/08 08:11:00;;;;;;;35.83;19.98;;;;;;;3.94;98.89;99617.44;5098261;28;20412;-75
2023/12/08 08:13:26;;;;;;;28.70;17.55;;;;;;;3.89;98.19;99614.72;5073725;28;20083;-75
2023/12/08 08:15:51;;;;;;;32.20;19.92;;;;;;;4.02;99.25;99614.06;5093109;28;20171;-77
2023/12/08 08:18:17;;;;;;;34.92;17.35;;;;;;;3.90;98.21;99608.88;5096326;28;20031;-76
2023/12/08 08:20:42;;;;;;;32.13;18.63;;;;;;;4.06;97.71;99612.34;5081040;28;20367;-74
2023/12/08 08:23:08;;;;;;;35.70;21.77;;;;;;;3.99;98.28;99609.09;5074702;28;20028;-73
2023/12/08 08:25:33;;;;;;;36.97;19.95;;;;;;;4.13;98.25;99619.53;5090093;28;20064;-74
2023/12/08 08:28:00;;;;;;;36.33;19.20;;;;;;;4.07;97.65;99625.09;5085505;28;20031;-75
2023/12/08 08:30:26;;;;;;;28.63;15.77;;;;;;;4.28;98.25;99624.09;5080887;28;20024;-76
2023/12/08 08:32:52;;;;;;;34.97;19.92;;;;;;;4.24;98.54;99621.09;5100413;28;20027;-73
2023/12/08 08:35:17;;;;;;;36.95;21.10;;;;;;;4.09;98.20;99616.50;5087303;28;20488;-76
2023/12/08 08:37:43;;;;;;;47.17;25.90;;;;;;;4.20;98.40;99609.78;5100407;28;20039;-76
2023/12/08 08:40:09;;;;;;;44.60;22.27;;;;;;;4.17;97.94;99612.28;5088781;28;20032;-74
2023/12/08 08:42:36;;;;;;;40.65;23.17;;;;;;;4.08;98.82;99620.38;5095595;28;20105;-76
2023/12/08 08:45:06;;;;;;;46.28;24.92;;;;;;;4.18;99.48;99617.53;5101298;28;20507;-72
2023/12/08 08:47:31;;;;;;;38.15;21.08;;;;;;;4.13;97.76;99608.44;5090137;28;20546;-74
2023/12/08 08:49:57;;;;;;;37.70;18.08;;;;;;;4.05;97.41;99612.66;5096305;28;20118;-71
2023/12/08 08:52:22;;;;;;;25.05;14.57;;;;;;;3.99;96.44;99611.03;5095868;28;20028;-76
2023/12/08 08:54:48;;;;;;;27.70;15.00;;;;;;;3.93;96.72;99613.84;5070874;28;20119;-76
2023/12/08 08:57:14;;;;;;;31.17;17.60;;;;;;;3.99;98.69;99617.41;5099581;28;20035;-75
2023/12/08 08:59:39;;;;;;;30.40;16.58;;;;;;;4.03;99.35;99620.41;5090119;28;20027;-76
2023/12/08 09:02:05;;;;;;;24.65;14.38;;;;;;;3.86;97.48;99618.88;5101155;28;20020;-75
2023/12/08 09:04:30;;;;;;;20.65;13.60;;;;;;;3.77;97.11;99615.03;5091159;28;20086;-75
2023/12/08 09:06:56;;;;;;;28.50;16.90;;;;;;;3.85;98.61;99610.84;5087465;28;20032;-75
2023/12/08 09:09:22;;;;;;;28.42;16.02;;;;;;;3.88;98.33;99607.53;5089599;28;20023;-76
2023/12/08 09:11:47;;;;;;;26.27;15.23;;;;;;;3.93;99.65;99607.47;5101847;28;20058;-76
2023/12/08 09:14:14;;;;;;;30.30;14.18;;;;;;;3.99;100.00;99600.81;5092207;28;20039;-75
2023/12/08 09:16:40;;;;;;;37.15;20.27;;;;;;;3.91;99.79;99598.63;5076677;28;20020;-75
2023/12/08 09:19:05;;;;;;;30.27;17.45;;;;;;;3.83;97.95;99597.31;5082182;28;20085;-75
2023/12/08 09:21:31;;;;;;;33.70;19.45;;;;;;;3.98;99.19;99593.63;5091055;28;20027;-74
2023/12/08 09:23:57;;;;;;;36.20;21.88;;;;;;;3.89;97.72;99604.44;5111251;28;20463;-74
2023/12/08 09:26:22;;;;;;;33.60;18.83;;;;;;;3.97;100.00;99591.13;5085941;28;20016;-74
2023/12/08 09:28:49;;;;;;;30.92;17.63;;;;;;;4.00;100.00;99585.84;5091904;28;20032;-75
2023/12/08 09:31:14;;;;;;;31.25;19.23;;;;;;;3.92;99.76;99579.00;5074656;28;20031;-75
2023/12/08 09:33:41;;;;;;;35.42;20.45;;;;;;;4.08;100.00;99576.09;5101745;28;20032;-75
2023/12/08 09:36:08;;;;;;;25.20;15.75;;;;;;;4.11;99.65;99558.91;5102749;28;20085;-74
2023/12/08 09:38:33;;;;;;;37.03;21.77;;;;;;;4.07;100.00;99575.25;5101240;28;20054;-74
2023/12/08 09:40:59;;;;;;;28.17;15.27;;;;;;;3.94;99.57;99575.91;5085429;28;20158;-73
2023/12/08 09:43:47;;;;;;;30.65;16.73;;;;;;;3.88;100.00;99568.78;5085765;28;20100;-71
2023/12/08 09:46:15;;;;;;;25.70;15.70;;;;;;;3.79;100.00;99557.47;5092259;28;20035;-73
2023/12/08 09:48:45;;;;;;;32.30;17.13;;;;;;;3.86;100.00;99565.44;5087070;28;20805;-73
2023/12/08 09:51:13;;;;;;;29.45;15.77;;;;;;;3.72;100.00;99557.78;5088447;28;20015;-73
2023/12/08 09:53:41;;;;;;;24.50;16.67;;;;;;;3.59;100.00;99566.72;5100380;28;20050;-73
2023/12/08 09:56:08;;;;;;;23.02;14.07;;;;;;;3.55;100.00;99555.41;5098804;28;20031;-74
2023/12/08 09:58:35;;;;;;;30.33;16.45;;;;;;;3.67;100.00;99563.38;5101272;28;20020;-73
2023/12/08 10:01:01;;;;;;;27.33;16.58;;;;;;;3.68;100.00;99542.91;5101536;28;20023;-73
2023/12/08 10:03:26;;;;;;;38.45;20.42;;;;;;;3.64;100.00;99555.66;5103759;28;20024;-73
2023/12/08 10:05:55;;;;;;;37.13;19.33;;;;;;;3.85;100.00;99547.19;5086840;28;20028;-73
2023/12/08 10:08:21;;;;;;;31.95;17.15;;;;;;;3.88;100.00;99544.69;5110825;28;20073;-73
2023/12/08 10:10:47;;;;;;;32.38;18.85;;;;;;;3.85;100.00;99528.66;5111628;28;20408;-73
2023/12/08 10:13:12;;;;;;;30.42;18.10;;;;;;;4.05;100.00;99538.72;5082298;28;20032;-73
2023/12/08 10:15:43;;;;;;;38.70;21.33;;;;;;;4.08;100.00;99540.91;5112059;28;20049;-73
2023/12/08 10:18:21;;;;;;;29.67;19.42;;;;;;;4.11;100.00;99531.22;5094075;28;20027;-73
2023/12/08 10:20:46;;;;;;;35.17;20.10;;;;;;;3.98;100.00;99526.34;5089804;28;21144;-74
2023/12/08 10:23:19;;;;;;;36.30;21.48;;;;;;;4.15;100.00;99531.47;5081165;28;20024;-73
2023/12/08 10:25:47;;;;;;;28.55;16.50;;;;;;;3.81;99.13;99532.28;5112358;28;20020;-74
2023/12/08 10:28:12;;;;;;;35.13;20.17;;;;;;;3.95;100.00;99538.00;5107551;28;20062;-73
2023/12/08 10:30:38;;;;;;;22.20;15.45;;;;;;;3.88;100.00;99527.25;5093314;28;20047;-73
2023/12/08 10:33:04;;;;;;;35.70;18.88;;;;;;;3.90;100.00;99520.31;5098318;28;20030;-73
2023/12/08 10:35:30;;;;;;;38.75;21.25;;;;;;;3.85;100.00;99522.28;5091536;28;20583;-73
2023/12/08 10:37:55;;;;;;;32.80;18.77;;;;;;;3.76;100.00;99514.63;5104256;28;20024;-73
2023/12/08 10:40:21;;;;;;;25.88;17.00;;;;;;;3.67;100.00;99516.34;5082473;28;20396;-73
2023/12/08 10:42:49;;;;;;;25.83;16.25;;;;;;;3.71;100.00;99517.41;5105404;28;20051;-73
2023/12/08 10:45:15;;;;;;;33.88;17.95;;;;;;;3.84;100.00;99512.34;5076492;28;20012;-73
2023/12/08 10:47:49;;;;;;;35.80;19.45;;;;;;;3.85;100.00;99516.75;5112417;28;20042;-73
2023/12/08 10:50:15;;;;;;;34.58;18.70;;;;;;;3.65;100.00;99518.56;5113539;28;20055;-73
2023/12/08 10:52:40;;;;;;;42.92;22.90;;;;;;;3.51;100.00;99508.16;5105696;28;20496;-73
2023/12/08 10:55:07;;;;;;;37.33;20.42;;;;;;;3.69;100.00;99508.56;5085465;28;20020;-73
2023/12/08 10:57:34;;;;;;;26.90;16.00;;;;;;;3.68;100.00;99506.94;5082729;28;20028;-73
2023/12/08 11:02:58;;;;;;;29.90;16.70;;;;;;;3.71;100.00;99506.34;5071098;28;20042;-73
2023/12/08 11:05:37;;;;;;;24.83;14.13;;;;;;;3.69;100.00;99508.56;5108811;28;20019;-73
2023/12/08 11:08:03;;;;;;;29.73;16.60;;;;;;;3.72;100.00;99510.75;5111385;28;20499;-73
2023/12/08 11:10:34;;;;;;;34.25;21.30;;;;;;;3.65;100.00;99504.75;5110151;28;20055;-73
2023/12/08 11:13:22;;;;;;;40.45;24.00;;;;;;;3.68;100.00;99511.63;5089890;28;20041;-73
2023/12/08 11:16:15;;;;;;;23.73;14.77;;;;;;;3.47;100.00;99509.81;5080002;28;20039;-73
2023/12/08 11:18:41;;;;;;;30.20;16.98;;;;;;;3.57;100.00;99502.59;5081399;28;20036;-73